Time;durP1;ratioP1;P1;durP2;ratioP2;P2;SDS_P1;SDS_P2;PMS_P1;PMS_P2;Temp;Humidity;BMP_temperature;BMP_pressure;BME280_temperature;BME280_humidity;BME280_pressure;Samples;Min_cycle;Max_cycle;Signal;HPM_P1;HPM_P2
2023/10/14 18:22:50;;;;;;;17.20;10.40;;;;;;;19.96;56.05;96450.25;105371;1265;96664;-76
2023/10/14 18:25:19;;;;;;;14.30;9.40;;;;;;;19.87;56.01;96455.63;106816;1257;95940;-76
2023/10/14 18:27:47;;;;;;;17.30;10.10;;;;;;;19.77;56.23;96476.45;106857;1256;101061;-76
2023/10/14 18:30:16;;;;;;;16.10;10.20;;;;;;;19.65;56.64;96491.11;106953;1248;100211;-79
2023/10/14 18:32:50;;;;;;;18.60;10.70;;;;;;;19.46;57.29;96494.24;106344;1254;96981;-78
2023/10/14 18:35:21;;;;;;;16.80;11.60;;;;;;;19.21;57.85;96492.52;106096;1257;96007;-78
2023/10/14 18:37:49;;;;;;;15.90;10.90;;;;;;;18.87;58.65;96504.09;106599;1253;98934;-75
2023/10/14 18:40:19;;;;;;;17.50;11.20;;;;;;;18.57;59.81;96516.33;107086;1245;101251;-76
2023/10/14 18:42:48;;;;;;;20.00;11.20;;;;;;;18.37;60.81;96521.52;107038;1255;99826;-76
2023/10/14 18:45:19;;;;;;;17.00;10.50;;;;;;;18.23;61.35;96523.02;107112;1241;96164;-77
2023/10/14 18:47:52;;;;;;;19.80;11.10;;;;;;;18.10;61.72;96516.69;107107;1247;96158;-76
2023/10/14 18:50:23;;;;;;;15.50;10.00;;;;;;;17.97;62.13;96516.21;106768;1250;100816;-76
2023/10/14 18:52:51;;;;;;;22.00;11.00;;;;;;;17.83;62.84;96522.70;107107;1256;101304;-76
2023/10/14 18:55:25;;;;;;;17.50;10.60;;;;;;;17.74;63.19;96525.04;106621;1253;99545;-76
2023/10/14 18:57:55;;;;;;;17.00;9.90;;;;;;;17.70;63.52;96523.84;106467;1261;95912;-81
2023/10/14 19:00:23;;;;;;;14.10;9.80;;;;;;;17.61;63.73;96527.34;106498;1261;95962;-82
2023/10/14 19:02:53;;;;;;;13.60;9.40;;;;;;;17.48;63.94;96533.58;106680;1256;99806;-81
2023/10/14 19:05:20;;;;;;;15.30;9.90;;;;;;;17.38;64.03;96535.41;107233;1253;100096;-81
2023/10/14 19:07:47;;;;;;;17.80;9.50;;;;;;;17.32;64.36;96531.27;107288;1238;96020;-80
2023/10/14 19:10:15;;;;;;;14.10;8.90;;;;;;;17.28;64.59;96533.07;107212;1253;96122;-83
2023/10/14 19:12:46;;;;;;;12.70;9.10;;;;;;;17.24;64.85;96529.00;107162;1243;95962;-82
2023/10/14 19:15:13;;;;;;;14.50;9.50;;;;;;;17.20;64.98;96531.55;106847;1247;100826;-78
2023/10/14 19:17:42;;;;;;;12.90;8.40;;;;;;;17.13;65.30;96543.50;107332;1245;100183;-82
2023/10/14 19:20:14;;;;;;;13.50;9.40;;;;;;;17.05;65.34;96549.88;107314;1244;99069;-82
2023/10/14 19:22:43;;;;;;;13.60;9.00;;;;;;;17.03;65.40;96556.60;107280;1245;96185;-82
2023/10/14 19:25:15;;;;;;;14.80;9.20;;;;;;;16.99;65.65;96557.96;107252;1239;97406;-80
2023/10/14 19:27:43;;;;;;;14.00;9.20;;;;;;;16.95;65.92;96564.44;107027;1244;100826;-80
2023/10/14 19:30:13;;;;;;;12.80;9.20;;;;;;;16.90;65.99;96574.73;107658;1248;108594;-83
2023/10/14 19:32:39;;;;;;;9.30;6.70;;;;;;;16.83;65.96;96581.83;107911;1237;99755;-80
2023/10/14 19:35:08;;;;;;;7.50;6.20;;;;;;;16.68;66.44;96593.08;107792;1237;95911;-78
2023/10/14 19:37:35;;;;;;;5.00;3.40;;;;;;;16.50;66.38;96600.80;107796;1247;97118;-78
2023/10/14 19:40:13;;;;;;;2.90;2.60;;;;;;;16.33;66.52;96600.31;107781;1248;96471;-78
2023/10/14 19:42:44;;;;;;;3.40;2.60;;;;;;;16.04;66.77;96593.71;107881;1249;100220;-79
2023/10/14 19:45:14;;;;;;;3.00;2.70;;;;;;;15.70;67.30;96592.50;107716;1237;98681;-79
2023/10/14 19:47:42;;;;;;;4.90;2.50;;;;;;;15.39;67.80;96595.50;107662;1237;96460;-79
2023/10/14 19:50:10;;;;;;;2.70;2.00;;;;;;;15.16;68.10;96592.75;107345;1235;96627;-78
2023/10/14 19:52:37;;;;;;;2.30;1.90;;;;;;;15.04;68.24;96590.27;107374;1249;101018;-78
2023/10/14 19:55:21;;;;;;;2.30;1.70;;;;;;;14.96;67.90;96591.13;107233;1249;96900;-76
2023/10/14 19:58:01;;;;;;;1.60;1.30;;;;;;;14.87;67.39;96597.62;107803;1243;98565;-81
2023/10/14 20:00:30;;;;;;;1.90;1.30;;;;;;;14.77;66.68;96611.17;107887;1241;95923;-80
2023/10/14 20:03:00;;;;;;;2.50;1.20;;;;;;;14.66;66.24;96604.98;107467;1244;96054;-80
2023/10/14 20:05:27;;;;;;;2.40;1.30;;;;;;;14.61;66.09;96612.47;107955;1235;100743;-80
2023/10/14 20:07:58;;;;;;;4.90;1.30;;;;;;;14.40;65.69;96606.97;107414;1249;99887;-80
2023/10/14 20:10:25;;;;;;;7.30;2.30;;;;;;;14.18;65.68;96626.88;107887;1247;98688;-80
2023/10/14 20:12:54;;;;;;;3.80;1.40;;;;;;;13.93;65.73;96669.23;107599;1249;95871;-80
2023/10/14 20:15:21;;;;;;;7.40;2.20;;;;;;;13.71;66.07;96716.32;107120;1247;96137;-77
2023/10/14 20:17:48;;;;;;;4.40;1.90;;;;;;;13.51;66.69;96733.52;107854;1243;95904;-78
2023/10/14 20:20:18;;;;;;;4.60;1.70;;;;;;;13.29;67.21;96735.30;107906;1244;95936;-78
2023/10/14 20:22:45;;;;;;;5.90;2.20;;;;;;;13.10;67.90;96744.87;107304;1242;99890;-78
2023/10/14 20:25:19;;;;;;;7.00;1.90;;;;;;;12.92;68.26;96754.61;107386;1251;95956;-78
2023/10/14 20:27:50;;;;;;;3.10;1.80;;;;;;;12.83;68.52;96768.88;107084;1241;96804;-77
2023/10/14 20:30:21;;;;;;;4.20;1.50;;;;;;;12.73;68.78;96779.07;107142;1253;99817;-78
2023/10/14 20:32:51;;;;;;;6.50;2.00;;;;;;;12.65;69.01;96786.73;107086;1242;101464;-78
2023/10/14 20:35:21;;;;;;;2.50;1.60;;;;;;;12.57;69.43;96776.91;108673;1242;99849;-78
2023/10/14 20:37:49;;;;;;;3.80;2.00;;;;;;;12.51;69.52;96770.59;107092;1247;96153;-78
2023/10/14 20:40:19;;;;;;;4.20;1.90;;;;;;;12.45;69.38;96769.45;107015;1247;96137;-78
2023/10/14 20:42:49;;;;;;;5.30;2.20;;;;;;;12.39;69.64;96768.84;106797;1255;101104;-78
2023/10/14 20:45:17;;;;;;;5.50;2.10;;;;;;;12.38;70.09;96775.30;107133;1255;101802;-78
2023/10/14 20:47:45;;;;;;;3.90;1.50;;;;;;;12.37;70.39;96780.65;106793;1247;99926;-78
2023/10/14 20:50:17;;;;;;;5.10;1.90;;;;;;;12.35;70.65;96778.15;106962;1248;97090;-79
2023/10/14 20:52:50;;;;;;;5.10;2.10;;;;;;;12.36;70.76;96769.96;106639;1253;95886;-81
2023/10/14 20:55:23;;;;;;;5.30;2.30;;;;;;;12.41;71.15;96764.13;107349;1243;100859;-80
2023/10/14 20:58:08;;;;;;;2.80;1.50;;;;;;;12.38;71.12;96760.11;107137;1244;100240;-81
2023/10/14 21:00:37;;;;;;;5.70;2.10;;;;;;;12.34;71.15;96766.04;107917;1249;100040;-80
2023/10/14 21:03:08;;;;;;;7.50;2.00;;;;;;;12.36;71.26;96777.54;107392;1238;97044;-79
2023/10/14 21:05:40;;;;;;;4.70;2.10;;;;;;;12.31;71.39;96760.40;107404;1241;96982;-78
2023/10/14 21:08:13;;;;;;;4.90;2.30;;;;;;;12.27;71.68;96746.34;108011;1235;99781;-78
2023/10/14 21:10:43;;;;;;;7.70;2.40;;;;;;;12.30;72.00;96755.55;107911;1242;100171;-81
2023/10/14 21:13:11;;;;;;;6.50;2.40;;;;;;;12.31;72.00;96750.27;107853;1237;98851;-81
2023/10/14 21:15:38;;;;;;;7.20;2.10;;;;;;;12.24;71.86;96755.37;106990;1249;97148;-79
2023/10/14 21:18:08;;;;;;;5.00;2.10;;;;;;;12.22;71.99;96753.74;107601;1249;96851;-78
2023/10/14 21:20:42;;;;;;;6.20;2.10;;;;;;;12.23;72.11;96746.80;107932;1237;100762;-78
2023/10/14 21:23:15;;;;;;;4.80;2.30;;;;;;;12.28;72.13;96749.11;107462;1235;101763;-79
2023/10/14 21:25:42;;;;;;;6.20;2.80;;;;;;;12.31;71.99;96756.11;107376;1241;100132;-79
2023/10/14 21:28:11;;;;;;;6.70;4.00;;;;;;;12.30;72.19;96761.89;107835;1249;97669;-78
2023/10/14 21:30:39;;;;;;;9.50;4.50;;;;;;;12.25;72.24;96759.39;107893;1241;97141;-77
2023/10/14 21:33:06;;;;;;;9.80;4.00;;;;;;;12.17;72.43;96759.05;107604;1249;100767;-80
2023/10/14 21:35:34;;;;;;;9.20;4.50;;;;;;;12.15;72.74;96773.45;107862;1237;95840;-80
2023/10/14 21:38:01;;;;;;;11.40;5.10;;;;;;;12.14;72.98;96786.20;107142;1249;98872;-81
2023/10/14 21:40:28;;;;;;;9.80;6.00;;;;;;;12.11;73.04;96792.58;107373;1244;96828;-80
2023/10/14 21:42:57;;;;;;;8.30;4.70;;;;;;;12.07;73.24;96802.16;107864;1247;96131;-80
2023/10/14 21:45:24;;;;;;;6.60;3.10;;;;;;;12.01;73.40;96809.54;107050;1238;100770;-81
2023/10/14 21:47:52;;;;;;;6.70;2.90;;;;;;;12.01;73.25;96818.52;107287;1245;100249;-82
2023/10/14 21:50:20;;;;;;;5.00;2.60;;;;;;;12.04;73.27;96825.64;107032;1244;98834;-82
2023/10/14 21:52:49;;;;;;;6.10;2.40;;;;;;;12.08;73.19;96826.67;107235;1244;96547;-82
2023/10/14 21:55:23;;;;;;;4.80;2.40;;;;;;;12.08;73.38;96821.34;107217;1244;95972;-81
2023/10/14 21:57:50;;;;;;;5.90;2.30;;;;;;;12.06;73.53;96827.80;107322;1252;100727;-82
2023/10/14 22:00:19;;;;;;;9.90;3.40;;;;;;;11.99;73.53;96838.70;106911;1241;97225;-81
2023/10/14 22:02:47;;;;;;;7.30;2.90;;;;;;;11.91;73.93;96847.40;107272;1244;98842;-79
2023/10/14 22:05:14;;;;;;;9.50;2.50;;;;;;;11.91;74.36;96852.90;107155;1244;97145;-79
2023/10/14 22:07:42;;;;;;;4.00;2.40;;;;;;;11.92;74.53;96852.35;107306;1242;96981;-79
2023/10/14 22:10:14;;;;;;;4.50;2.30;;;;;;;11.93;74.72;96847.59;106707;1246;100502;-81
2023/10/14 22:12:43;;;;;;;5.20;2.40;;;;;;;11.93;74.88;96836.94;107323;1245;100362;-81
2023/10/14 22:15:15;;;;;;;5.80;2.70;;;;;;;11.88;74.87;96826.77;107229;1249;98903;-81
2023/10/14 22:17:49;;;;;;;6.50;2.70;;;;;;;11.86;75.20;96814.90;107780;1235;96343;-81
2023/10/14 22:20:17;;;;;;;6.30;2.40;;;;;;;11.82;75.45;96799.16;107963;1240;95845;-81
2023/10/14 22:22:45;;;;;;;8.10;3.00;;;;;;;11.83;75.63;96794.67;107649;1249;99737;-81
2023/10/14 22:25:12;;;;;;;5.60;2.60;;;;;;;11.85;75.58;96794.35;107592;1241;100209;-81
2023/10/14 22:27:40;;;;;;;5.10;2.20;;;;;;;11.87;75.62;96798.08;107853;1240;97750;-78
2023/10/14 22:30:10;;;;;;;6.70;2.50;;;;;;;11.88;75.72;96794.86;107864;1238;97498;-82
2023/10/14 22:32:38;;;;;;;6.30;2.80;;;;;;;11.86;75.63;96791.77;107794;1239;97676;-76
2023/10/14 22:35:06;;;;;;;4.40;2.80;;;;;;;11.84;75.75;96790.26;107923;1248;102407;-76
2023/10/14 22:37:33;;;;;;;6.60;2.30;;;;;;;11.84;75.86;96791.55;107870;1237;96601;-75
2023/10/14 22:40:02;;;;;;;5.30;2.40;;;;;;;11.83;75.86;96781.27;107864;1248;96613;-76
2023/10/14 22:42:29;;;;;;;5.60;2.50;;;;;;;11.79;75.78;96764.20;107911;1237;97702;-76
2023/10/14 22:44:56;;;;;;;6.20;2.50;;;;;;;11.72;75.80;96753.71;107897;1247;96560;-76
2023/10/14 22:47:22;;;;;;;5.50;3.10;;;;;;;11.65;76.04;96746.80;107354;1239;96569;-75
2023/10/14 22:49:50;;;;;;;6.30;3.00;;;;;;;11.64;76.23;96749.56;107825;1247;97753;-75
2023/10/14 22:52:17;;;;;;;7.20;3.00;;;;;;;11.64;76.32;96759.67;107921;1237;97816;-75
2023/10/14 22:54:44;;;;;;;5.10;2.60;;;;;;;11.64;76.49;96762.28;107885;1238;96575;-75
2023/10/14 22:57:10;;;;;;;7.90;2.70;;;;;;;11.66;76.51;96772.66;107689;1242;97249;-75
2023/10/14 22:59:36;;;;;;;6.60;2.80;;;;;;;11.67;76.53;96789.11;107870;1246;101247;-76
2023/10/14 23:02:04;;;;;;;6.00;2.80;;;;;;;11.65;76.63;96790.48;107830;1238;97921;-80
2023/10/14 23:04:32;;;;;;;6.60;2.80;;;;;;;11.63;76.74;96794.80;107857;1235;97553;-78
2023/10/14 23:06:59;;;;;;;4.40;2.70;;;;;;;11.65;76.91;96799.71;107831;1237;96635;-80
2023/10/14 23:09:26;;;;;;;5.20;2.50;;;;;;;11.66;76.96;96803.64;107561;1242;97796;-78
2023/10/14 23:11:52;;;;;;;4.50;2.70;;;;;;;11.63;77.05;96802.85;107550;1249;97023;-79
2023/10/14 23:14:18;;;;;;;6.70;2.70;;;;;;;11.60;77.22;96804.17;107902;1239;96563;-79
2023/10/14 23:16:44;;;;;;;4.40;2.30;;;;;;;11.61;77.38;96806.58;107844;1238;97078;-80
2023/10/14 23:19:11;;;;;;;6.50;2.60;;;;;;;11.62;77.58;96798.50;107844;1237;97099;-80
2023/10/14 23:21:38;;;;;;;6.40;3.20;;;;;;;11.63;77.63;96786.52;107890;1244;96565;-79
2023/10/14 23:24:06;;;;;;;4.20;2.30;;;;;;;11.64;77.57;96776.88;107368;1248;97098;-79
2023/10/14 23:26:34;;;;;;;6.10;2.40;;;;;;;11.62;77.55;96770.77;107954;1237;97118;-79
2023/10/14 23:29:02;;;;;;;6.70;2.70;;;;;;;11.59;77.43;96777.79;107734;1248;102073;-80
2023/10/14 23:31:29;;;;;;;6.50;2.70;;;;;;;11.57;77.66;96781.42;107791;1241;100220;-75
2023/10/14 23:33:55;;;;;;;4.50;2.90;;;;;;;11.58;77.80;96790.96;107878;1239;97348;-76
2023/10/14 23:36:21;;;;;;;5.40;2.80;;;;;;;11.57;77.73;96790.28;107858;1249;97810;-76
2023/10/14 23:38:48;;;;;;;6.80;2.70;;;;;;;11.56;77.75;96801.19;107948;1237;97569;-76
2023/10/14 23:41:14;;;;;;;7.80;2.80;;;;;;;11.54;77.80;96807.66;107852;1237;101431;-76
2023/10/14 23:43:44;;;;;;;6.20;2.50;;;;;;;11.51;77.88;96805.33;107883;1249;96592;-76
2023/10/14 23:46:12;;;;;;;5.60;3.30;;;;;;;11.51;78.21;96808.19;107803;1249;96673;-81
2023/10/14 23:48:38;;;;;;;9.00;2.70;;;;;;;11.51;78.25;96813.60;107830;1238;97295;-81
2023/10/14 23:51:07;;;;;;;8.80;3.20;;;;;;;11.49;78.37;96815.10;107870;1243;97125;-81
2023/10/14 23:53:34;;;;;;;6.90;3.20;;;;;;;11.45;78.45;96814.46;107364;1242;101204;-81
2023/10/14 23:56:01;;;;;;;5.40;3.20;;;;;;;11.46;78.56;96818.86;107868;1246;97514;-81
2023/10/14 23:58:28;;;;;;;5.70;3.40;;;;;;;11.45;78.56;96825.11;107843;1248;97756;-81
